sensor_id;sensor_type;location;lat;lon;timestamp;pressure;altitude;pressure_sealevel;temperature;humidity
78990;BME280;68390;52.130;21.218;2024-03-23T00:54:18;99724.53;;;7.94;100.00
78990;BME280;68390;52.130;21.218;2024-03-23T00:56:44;99720.09;;;7.93;100.00
78990;BME280;68390;52.130;21.218;2024-03-23T00:59:09;99720.78;;;7.95;100.00
78990;BME280;68390;52.130;21.218;2024-03-23T01:01:35;99708.13;;;7.94;100.00
78990;BME280;68390;52.130;21.218;2024-03-23T01:04:00;99707.44;;;7.92;100.00
78990;BME280;68390;52.130;21.218;2024-03-23T01:06:25;99699.25;;;7.92;100.00
78990;BME280;68390;52.130;21.218;2024-03-23T01:08:51;99688.31;;;7.84;100.00
78990;BME280;68390;52.130;21.218;2024-03-23T01:11:17;99691.38;;;7.89;100.00
78990;BME280;68390;52.130;21.218;2024-03-23T01:13:43;99689.69;;;7.88;100.00
78990;BME280;68390;52.130;21.218;2024-03-23T01:16:08;99668.50;;;7.82;100.00
78990;BME280;68390;52.130;21.218;2024-03-23T01:18:33;99674.81;;;7.83;100.00
78990;BME280;68390;52.130;21.218;2024-03-23T01:20:59;99668.00;;;7.79;100.00
78990;BME280;68390;52.130;21.218;2024-03-23T01:23:24;99681.66;;;7.87;100.00
78990;BME280;68390;52.130;21.218;2024-03-23T01:25:54;99679.94;;;7.86;100.00
78990;BME280;68390;52.130;21.218;2024-03-23T01:28:20;99674.31;;;7.87;100.00
78990;BME280;68390;52.130;21.218;2024-03-23T01:30:46;99671.59;;;7.87;100.00
78990;BME280;68390;52.130;21.218;2024-03-23T01:33:12;99665.44;;;7.85;100.00
78990;BME280;68390;52.130;21.218;2024-03-23T01:35:38;99650.53;;;7.80;100.00
78990;BME280;68390;52.130;21.218;2024-03-23T01:38:03;99664.75;;;7.83;100.00
78990;BME280;68390;52.130;21.218;2024-03-23T01:40:29;99666.44;;;7.84;100.00
78990;BME280;68390;52.130;21.218;2024-03-23T01:43:05;99649.34;;;7.82;100.00
78990;BME280;68390;52.130;21.218;2024-03-23T01:45:32;99656.38;;;7.85;100.00
78990;BME280;68390;52.130;21.218;2024-03-23T01:47:58;99651.25;;;7.82;100.00
78990;BME280;68390;52.130;21.218;2024-03-23T01:50:24;99653.13;;;7.81;100.00
78990;BME280;68390;52.130;21.218;2024-03-23T01:52:50;99661.84;;;7.85;100.00
78990;BME280;68390;52.130;21.218;2024-03-23T01:55:16;99658.94;;;7.86;100.00
78990;BME280;68390;52.130;21.218;2024-03-23T01:57:41;99646.28;;;7.85;100.00
78990;BME280;68390;52.130;21.218;2024-03-23T02:00:07;99659.97;;;7.85;100.00
78990;BME280;68390;52.130;21.218;2024-03-23T02:02:34;99652.09;;;7.82;100.00
78990;BME280;68390;52.130;21.218;2024-03-23T02:05:00;99645.94;;;7.80;100.00
78990;BME280;68390;52.130;21.218;2024-03-23T02:07:25;99648.34;;;7.83;100.00
78990;BME280;68390;52.130;21.218;2024-03-23T02:09:51;99642.00;;;7.83;100.00
78990;BME280;68390;52.130;21.218;2024-03-23T02:12:17;99637.41;;;7.83;100.00
78990;BME280;68390;52.130;21.218;2024-03-23T02:14:43;99641.84;;;7.84;100.00
78990;BME280;68390;52.130;21.218;2024-03-23T02:17:09;99639.28;;;7.83;100.00
78990;BME280;68390;52.130;21.218;2024-03-23T02:19:34;99629.19;;;7.83;100.00
78990;BME280;68390;52.130;21.218;2024-03-23T02:21:59;99629.91;;;7.85;100.00
78990;BME280;68390;52.130;21.218;2024-03-23T02:24:25;99629.91;;;7.85;100.00
78990;BME280;68390;52.130;21.218;2024-03-23T02:26:50;99626.31;;;7.85;100.00
78990;BME280;68390;52.130;21.218;2024-03-23T02:29:15;99620.84;;;7.85;100.00
78990;BME280;68390;52.130;21.218;2024-03-23T02:31:41;99622.88;;;7.83;100.00
78990;BME280;68390;52.130;21.218;2024-03-23T02:34:07;99624.06;;;7.80;100.00
78990;BME280;68390;52.130;21.218;2024-03-23T02:36:32;99621.34;;;7.80;100.00
78990;BME280;68390;52.130;21.218;2024-03-23T02:38:58;99622.72;;;7.84;100.00
78990;BME280;68390;52.130;21.218;2024-03-23T02:41:23;99624.44;;;7.85;100.00
78990;BME280;68390;52.130;21.218;2024-03-23T02:43:51;99623.41;;;7.86;100.00
78990;BME280;68390;52.130;21.218;2024-03-23T02:46:17;99616.91;;;7.87;100.00
78990;BME280;68390;52.130;21.218;2024-03-23T02:48:43;99615.19;;;7.86;100.00
78990;BME280;68390;52.130;21.218;2024-03-23T02:51:08;99614.53;;;7.84;100.00
78990;BME280;68390;52.130;21.218;2024-03-23T02:53:34;99608.53;;;7.89;100.00
78990;BME280;68390;52.130;21.218;2024-03-23T02:56:00;99611.44;;;7.87;100.00
78990;BME280;68390;52.130;21.218;2024-03-23T02:58:25;99618.63;;;7.88;100.00
78990;BME280;68390;52.130;21.218;2024-03-23T03:00:51;99603.91;;;7.89;100.00
78990;BME280;68390;52.130;21.218;2024-03-23T03:03:16;99608.72;;;7.87;100.00
78990;BME280;68390;52.130;21.218;2024-03-23T03:05:42;99603.91;;;7.89;100.00
78990;BME280;68390;52.130;21.218;2024-03-23T03:08:08;99602.22;;;7.88;100.00
78990;BME280;68390;52.130;21.218;2024-03-23T03:10:33;99600.50;;;7.87;100.00
78990;BME280;68390;52.130;21.218;2024-03-23T03:13:01;99592.97;;;7.89;100.00
78990;BME280;68390;52.130;21.218;2024-03-23T03:15:27;99574.88;;;7.88;100.00
78990;BME280;68390;52.130;21.218;2024-03-23T03:17:52;99580.16;;;7.90;100.00
78990;BME280;68390;52.130;21.218;2024-03-23T03:20:18;99578.28;;;7.90;100.00
78990;BME280;68390;52.130;21.218;2024-03-23T03:22:43;99577.63;;;7.88;100.00
78990;BME280;68390;52.130;21.218;2024-03-23T03:25:09;99579.66;;;7.94;100.00
78990;BME280;68390;52.130;21.218;2024-03-23T03:27:34;99578.09;;;7.92;100.00
78990;BME280;68390;52.130;21.218;2024-03-23T03:30:00;99568.75;;;7.86;100.00
78990;BME280;68390;52.130;21.218;2024-03-23T03:32:32;99581.53;;;7.94;100.00
78990;BME280;68390;52.130;21.218;2024-03-23T03:34:57;99582.56;;;7.93;100.00
78990;BME280;68390;52.130;21.218;2024-03-23T03:37:23;99583.41;;;7.93;100.00
78990;BME280;68390;52.130;21.218;2024-03-23T03:39:48;99579.13;;;7.91;100.00
78990;BME280;68390;52.130;21.218;2024-03-23T03:42:14;99585.28;;;7.93;100.00
78990;BME280;68390;52.130;21.218;2024-03-23T03:44:40;99576.78;;;7.88;100.00
78990;BME280;68390;52.130;21.218;2024-03-23T03:47:06;99595.19;;;7.94;100.00
78990;BME280;68390;52.130;21.218;2024-03-23T03:49:31;99588.03;;;7.93;100.00
78990;BME280;68390;52.130;21.218;2024-03-23T03:51:57;99584.97;;;7.88;100.00
78990;BME280;68390;52.130;21.218;2024-03-23T03:54:22;99578.28;;;7.90;100.00
78990;BME280;68390;52.130;21.218;2024-03-23T03:56:48;99580.66;;;7.93;100.00
78990;BME280;68390;52.130;21.218;2024-03-23T03:59:13;99584.09;;;7.95;100.00
78990;BME280;68390;52.130;21.218;2024-03-23T04:01:39;99585.44;;;7.99;100.00
78990;BME280;68390;52.130;21.218;2024-03-23T04:04:05;99584.63;;;7.99;100.00
78990;BME280;68390;52.130;21.218;2024-03-23T04:06:58;99574.69;;;7.98;100.00
78990;BME280;68390;52.130;21.218;2024-03-23T04:09:23;99571.09;;;7.97;100.00
78990;BME280;68390;52.130;21.218;2024-03-23T04:11:49;99578.09;;;8.00;100.00
78990;BME280;68390;52.130;21.218;2024-03-23T04:14:14;99580.16;;;7.98;100.00
78990;BME280;68390;52.130;21.218;2024-03-23T04:16:39;99583.38;;;8.01;100.00
78990;BME280;68390;52.130;21.218;2024-03-23T04:19:05;99570.09;;;7.98;100.00
78990;BME280;68390;52.130;21.218;2024-03-23T04:21:30;99572.81;;;7.98;100.00
78990;BME280;68390;52.130;21.218;2024-03-23T04:23:56;99563.56;;;7.99;100.00
78990;BME280;68390;52.130;21.218;2024-03-23T04:26:21;99570.94;;;7.99;100.00
78990;BME280;68390;52.130;21.218;2024-03-23T04:28:47;99566.66;;;7.96;100.00
78990;BME280;68390;52.130;21.218;2024-03-23T04:31:12;99560.19;;;7.97;100.00
78990;BME280;68390;52.130;21.218;2024-03-23T04:33:37;99557.44;;;7.97;100.00
78990;BME280;68390;52.130;21.218;2024-03-23T04:36:03;99547.88;;;7.93;100.00
78990;BME280;68390;52.130;21.218;2024-03-23T04:38:29;99558.94;;;8.00;100.00
78990;BME280;68390;52.130;21.218;2024-03-23T04:40:58;99557.75;;;8.02;100.00
78990;BME280;68390;52.130;21.218;2024-03-23T04:43:26;99543.41;;;8.00;100.00
78990;BME280;68390;52.130;21.218;2024-03-23T04:45:51;99541.69;;;7.99;100.00
78990;BME280;68390;52.130;21.218;2024-03-23T04:48:20;99537.75;;;8.02;100.00
78990;BME280;68390;52.130;21.218;2024-03-23T04:50:45;99536.91;;;8.01;100.00
78990;BME280;68390;52.130;21.218;2024-03-23T04:53:11;99542.38;;;8.01;100.00
78990;BME280;68390;52.130;21.218;2024-03-23T04:55:36;99527.69;;;8.02;100.00
78990;BME280;68390;52.130;21.218;2024-03-23T04:58:02;99532.13;;;8.03;100.00
78990;BME280;68390;52.130;21.218;2024-03-23T05:00:28;99540.31;;;8.03;100.00
78990;BME280;68390;52.130;21.218;2024-03-23T05:02:53;99537.75;;;8.02;100.00
78990;BME280;68390;52.130;21.218;2024-03-23T05:05:19;99540.31;;;8.03;100.00
78990;BME280;68390;52.130;21.218;2024-03-23T05:07:44;99531.28;;;8.03;100.00
78990;BME280;68390;52.130;21.218;2024-03-23T05:10:09;99528.03;;;7.99;100.00
78990;BME280;68390;52.130;21.218;2024-03-23T05:12:36;99532.81;;;8.05;100.00
78990;BME280;68390;52.130;21.218;2024-03-23T05:15:01;99512.81;;;8.05;100.00
78990;BME280;68390;52.130;21.218;2024-03-23T05:17:26;99507.16;;;8.06;100.00
78990;BME280;68390;52.130;21.218;2024-03-23T05:19:52;99506.84;;;8.09;100.00
78990;BME280;68390;52.130;21.218;2024-03-23T05:22:17;99521.16;;;8.11;100.00
78990;BME280;68390;52.130;21.218;2024-03-23T05:24:45;99530.03;;;8.14;100.00
78990;BME280;68390;52.130;21.218;2024-03-23T05:27:10;99534.81;;;8.11;100.00
78990;BME280;68390;52.130;21.218;2024-03-23T05:29:35;99526.44;;;8.13;100.00
78990;BME280;68390;52.130;21.218;2024-03-23T05:32:01;99526.28;;;8.15;100.00
78990;BME280;68390;52.130;21.218;2024-03-23T05:34:26;99522.53;;;8.16;100.00
78990;BME280;68390;52.130;21.218;2024-03-23T05:36:53;99517.06;;;8.16;100.00
78990;BME280;68390;52.130;21.218;2024-03-23T05:39:19;99507.81;;;8.17;100.00
78990;BME280;68390;52.130;21.218;2024-03-23T05:41:47;99512.94;;;8.20;100.00
78990;BME280;68390;52.130;21.218;2024-03-23T05:44:12;99512.94;;;8.20;100.00
78990;BME280;68390;52.130;21.218;2024-03-23T05:46:38;99518.03;;;8.23;100.00
78990;BME280;68390;52.130;21.218;2024-03-23T05:49:03;99521.16;;;8.20;100.00
78990;BME280;68390;52.130;21.218;2024-03-23T05:51:29;99503.69;;;8.21;100.00
78990;BME280;68390;52.130;21.218;2024-03-23T05:53:54;99515.97;;;8.25;100.00
78990;BME280;68390;52.130;21.218;2024-03-23T05:56:20;99510.50;;;8.25;100.00
78990;BME280;68390;52.130;21.218;2024-03-23T05:58:45;99515.63;;;8.28;100.00
78990;BME280;68390;52.130;21.218;2024-03-23T06:01:11;99505.38;;;8.22;100.00
78990;BME280;68390;52.130;21.218;2024-03-23T06:03:38;99499.28;;;8.20;100.00
78990;BME280;68390;52.130;21.218;2024-03-23T06:06:03;99503.16;;;8.25;100.00
78990;BME280;68390;52.130;21.218;2024-03-23T06:08:29;99506.75;;;8.26;100.00
78990;BME280;68390;52.130;21.218;2024-03-23T06:10:55;99500.25;;;8.27;100.00
78990;BME280;68390;52.130;21.218;2024-03-23T06:13:20;99488.63;;;8.25;100.00
78990;BME280;68390;52.130;21.218;2024-03-23T06:15:50;99486.91;;;8.32;100.00
78990;BME280;68390;52.130;21.218;2024-03-23T06:18:15;99490.31;;;8.34;100.00
78990;BME280;68390;52.130;21.218;2024-03-23T06:20:42;99489.13;;;8.36;100.00
78990;BME280;68390;52.130;21.218;2024-03-23T06:23:07;99495.63;;;8.35;100.00
78990;BME280;68390;52.130;21.218;2024-03-23T06:25:32;99504.00;;;8.34;100.00
78990;BME280;68390;52.130;21.218;2024-03-23T06:27:58;99509.63;;;8.40;100.00
78990;BME280;68390;52.130;21.218;2024-03-23T06:30:24;99494.78;;;8.35;100.00
78990;BME280;68390;52.130;21.218;2024-03-23T06:32:49;99506.53;;;8.43;100.00
78990;BME280;68390;52.130;21.218;2024-03-23T06:35:14;99509.63;;;8.40;100.00
78990;BME280;68390;52.130;21.218;2024-03-23T06:37:40;99496.78;;;8.41;100.00
78990;BME280;68390;52.130;21.218;2024-03-23T06:40:07;99488.78;;;8.39;100.00
78990;BME280;68390;52.130;21.218;2024-03-23T06:42:35;99494.03;;;8.41;100.00
78990;BME280;68390;52.130;21.218;2024-03-23T06:45:00;99485.00;;;8.40;100.00
78990;BME280;68390;52.130;21.218;2024-03-23T06:47:26;99474.59;;;8.36;100.00
78990;BME280;68390;52.130;21.218;2024-03-23T06:49:51;99484.81;;;8.42;100.00
78990;BME280;68390;52.130;21.218;2024-03-23T06:52:17;99483.97;;;8.41;100.00
78990;BME280;68390;52.130;21.218;2024-03-23T06:54:42;99482.75;;;8.44;100.00
78990;BME280;68390;52.130;21.218;2024-03-23T06:57:10;99476.44;;;8.43;100.00
78990;BME280;68390;52.130;21.218;2024-03-23T06:59:36;99469.94;;;8.44;100.00
78990;BME280;68390;52.130;21.218;2024-03-23T07:02:01;99464.28;;;8.46;100.00
78990;BME280;68390;52.130;21.218;2024-03-23T07:04:27;99456.06;;;8.46;100.00
78990;BME280;68390;52.130;21.218;2024-03-23T07:07:02;99469.41;;;8.49;100.00
78990;BME280;68390;52.130;21.218;2024-03-23T07:09:28;99455.91;;;8.48;100.00
78990;BME280;68390;52.130;21.218;2024-03-23T07:11:55;99453.34;;;8.46;100.00
78990;BME280;68390;52.130;21.218;2024-03-23T07:14:21;99460.63;;;8.54;100.00
78990;BME280;68390;52.130;21.218;2024-03-23T07:16:47;99458.47;;;8.49;100.00
78990;BME280;68390;52.130;21.218;2024-03-23T07:19:14;99463.75;;;8.51;100.00
78990;BME280;68390;52.130;21.218;2024-03-23T07:21:41;99468.03;;;8.45;100.00
78990;BME280;68390;52.130;21.218;2024-03-23T07:24:07;99461.03;;;8.51;100.00
78990;BME280;68390;52.130;21.218;2024-03-23T07:26:32;99453.00;;;8.49;100.00
78990;BME280;68390;52.130;21.218;2024-03-23T07:28:58;99448.38;;;8.50;100.00
78990;BME280;68390;52.130;21.218;2024-03-23T07:31:23;99453.00;;;8.49;100.00
78990;BME280;68390;52.130;21.218;2024-03-23T07:33:50;99454.88;;;8.49;100.00
78990;BME280;68390;52.130;21.218;2024-03-23T07:36:16;99444.78;;;8.49;100.00
78990;BME280;68390;52.130;21.218;2024-03-23T07:38:42;99445.47;;;8.51;100.00
78990;BME280;68390;52.130;21.218;2024-03-23T07:41:11;99439.47;;;8.48;100.00
78990;BME280;68390;52.130;21.218;2024-03-23T07:43:38;99442.72;;;8.51;100.00
78990;BME280;68390;52.130;21.218;2024-03-23T07:46:04;99451.03;;;8.58;100.00
78990;BME280;68390;52.130;21.218;2024-03-23T07:48:30;99445.06;;;8.54;100.00
78990;BME280;68390;52.130;21.218;2024-03-23T07:50:58;99438.75;;;8.54;100.00
78990;BME280;68390;52.130;21.218;2024-03-23T07:53:23;99431.03;;;8.57;100.00
78990;BME280;68390;52.130;21.218;2024-03-23T07:56:02;99436.50;;;8.57;100.00
78990;BME280;68390;52.130;21.218;2024-03-23T07:58:28;99427.94;;;8.60;100.00
78990;BME280;68390;52.130;21.218;2024-03-23T08:00:54;99420.94;;;8.58;100.00
78990;BME280;68390;52.130;21.218;2024-03-23T08:03:20;99417.34;;;8.57;100.00
78990;BME280;68390;52.130;21.218;2024-03-23T08:05:46;99428.25;;;8.65;100.00
78990;BME280;68390;52.130;21.218;2024-03-23T08:08:12;99420.38;;;8.62;100.00
78990;BME280;68390;52.130;21.218;2024-03-23T08:10:49;99421.91;;;8.65;100.00
78990;BME280;68390;52.130;21.218;2024-03-23T08:13:15;99409.59;;;8.69;100.00
78990;BME280;68390;52.130;21.218;2024-03-23T08:15:41;99399.09;;;8.72;100.00
78990;BME280;68390;52.130;21.218;2024-03-23T08:18:07;99389.66;;;8.75;100.00
78990;BME280;68390;52.130;21.218;2024-03-23T08:20:32;99394.63;;;8.79;100.00
78990;BME280;68390;52.130;21.218;2024-03-23T08:22:58;99373.50;;;8.88;100.00
78990;BME280;68390;52.130;21.218;2024-03-23T08:25:23;99379.00;;;9.03;100.00
78990;BME280;68390;52.130;21.218;2024-03-23T08:27:49;99369.38;;;9.07;100.00
78990;BME280;68390;52.130;21.218;2024-03-23T08:30:14;99383.38;;;9.12;100.00
78990;BME280;68390;52.130;21.218;2024-03-23T08:32:40;99376.84;;;9.13;100.00
78990;BME280;68390;52.130;21.218;2024-03-23T08:35:11;99380.91;;;9.17;100.00
78990;BME280;68390;52.130;21.218;2024-03-23T08:37:36;99364.13;;;9.20;100.00
78990;BME280;68390;52.130;21.218;2024-03-23T08:40:01;99362.50;;;9.26;100.00
78990;BME280;68390;52.130;21.218;2024-03-23T08:42:28;99367.25;;;9.32;100.00
78990;BME280;68390;52.130;21.218;2024-03-23T08:44:53;99357.41;;;9.37;100.00
78990;BME280;68390;52.130;21.218;2024-03-23T08:47:18;99353.09;;;9.43;100.00
78990;BME280;68390;52.130;21.218;2024-03-23T08:49:44;99345.03;;;9.41;100.00
78990;BME280;68390;52.130;21.218;2024-03-23T08:52:10;99342.56;;;9.46;100.00
78990;BME280;68390;52.130;21.218;2024-03-23T08:54:35;99341.84;;;9.52;100.00
78990;BME280;68390;52.130;21.218;2024-03-23T08:57:01;99334.25;;;9.69;100.00
78990;BME280;68390;52.130;21.218;2024-03-23T08:59:26;99327.72;;;9.85;100.00
78990;BME280;68390;52.130;21.218;2024-03-23T09:01:52;99323.13;;;10.07;100.00
78990;BME280;68390;52.130;21.218;2024-03-23T09:04:18;99321.59;;;10.19;100.00
78990;BME280;68390;52.130;21.218;2024-03-23T09:06:43;99323.38;;;10.26;100.00
78990;BME280;68390;52.130;21.218;2024-03-23T09:09:09;99306.13;;;10.33;100.00
78990;BME280;68390;52.130;21.218;2024-03-23T09:11:34;99313.03;;;10.50;100.00
78990;BME280;68390;52.130;21.218;2024-03-23T09:13:59;99311.56;;;10.69;100.00
78990;BME280;68390;52.130;21.218;2024-03-23T09:16:25;99303.22;;;10.83;100.00
78990;BME280;68390;52.130;21.218;2024-03-23T09:18:52;99304.53;;;10.87;100.00
78990;BME280;68390;52.130;21.218;2024-03-23T09:21:18;99296.81;;;10.76;100.00
78990;BME280;68390;52.130;21.218;2024-03-23T09:23:53;99294.84;;;10.70;100.00
78990;BME280;68390;52.130;21.218;2024-03-23T09:26:18;99294.84;;;10.70;100.00
78990;BME280;68390;52.130;21.218;2024-03-23T09:28:44;99289.63;;;10.75;100.00
78990;BME280;68390;52.130;21.218;2024-03-23T09:31:09;99282.28;;;10.82;100.00
78990;BME280;68390;52.130;21.218;2024-03-23T09:33:39;99287.19;;;10.87;100.00
78990;BME280;68390;52.130;21.218;2024-03-23T09:36:05;99279.84;;;10.94;100.00
78990;BME280;68390;52.130;21.218;2024-03-23T09:38:31;99269.69;;;10.94;100.00
78990;BME280;68390;52.130;21.218;2024-03-23T09:40:57;99278.19;;;10.99;100.00
78990;BME280;68390;52.130;21.218;2024-03-23T09:43:23;99268.78;;;11.15;100.00
78990;BME280;68390;52.130;21.218;2024-03-23T09:45:49;99268.72;;;11.43;100.00
78990;BME280;68390;52.130;21.218;2024-03-23T09:48:15;99252.94;;;11.58;100.00
78990;BME280;68390;52.130;21.218;2024-03-23T09:50:42;99257.63;;;11.64;100.00
78990;BME280;68390;52.130;21.218;2024-03-23T09:53:09;99251.50;;;11.69;100.00
78990;BME280;68390;52.130;21.218;2024-03-23T09:55:36;99257.41;;;11.66;100.00
78990;BME280;68390;52.130;21.218;2024-03-23T09:58:02;99251.06;;;11.59;100.00
78990;BME280;68390;52.130;21.218;2024-03-23T10:00:28;99248.69;;;11.56;100.00
78990;BME280;68390;52.130;21.218;2024-03-23T10:02:58;99229.84;;;11.53;100.00
78990;BME280;68390;52.130;21.218;2024-03-23T10:05:27;99224.34;;;11.46;100.00
78990;BME280;68390;52.130;21.218;2024-03-23T10:07:53;99229.84;;;11.53;100.00
78990;BME280;68390;52.130;21.218;2024-03-23T10:10:18;99222.91;;;11.63;100.00
78990;BME280;68390;52.130;21.218;2024-03-23T10:12:45;99220.91;;;11.79;100.00
78990;BME280;68390;52.130;21.218;2024-03-23T10:15:22;99209.28;;;11.83;100.00
78990;BME280;68390;52.130;21.218;2024-03-23T10:17:49;99215.66;;;11.97;100.00
78990;BME280;68390;52.130;21.218;2024-03-23T10:20:19;99200.22;;;12.09;100.00
78990;BME280;68390;52.130;21.218;2024-03-23T10:22:47;99186.69;;;12.14;100.00
78990;BME280;68390;52.130;21.218;2024-03-23T10:25:13;99172.28;;;12.25;100.00
78990;BME280;68390;52.130;21.218;2024-03-23T10:27:39;99160.66;;;12.36;100.00
78990;BME280;68390;52.130;21.218;2024-03-23T10:30:12;99141.59;;;12.41;100.00
78990;BME280;68390;52.130;21.218;2024-03-23T10:32:38;99135.88;;;12.56;100.00
78990;BME280;68390;52.130;21.218;2024-03-23T10:35:17;99122.94;;;12.63;100.00
78990;BME280;68390;52.130;21.218;2024-03-23T10:37:51;99117.59;;;12.75;100.00
78990;BME280;68390;52.130;21.218;2024-03-23T10:40:17;99105.09;;;12.85;100.00
78990;BME280;68390;52.130;21.218;2024-03-23T10:42:44;99108.19;;;13.02;100.00
78990;BME280;68390;52.130;21.218;2024-03-23T10:45:10;99101.59;;;13.16;100.00
78990;BME280;68390;52.130;21.218;2024-03-23T10:47:36;99091.63;;;13.15;100.00
78990;BME280;68390;52.130;21.218;2024-03-23T10:50:05;99090.94;;;13.27;100.00
78990;BME280;68390;52.130;21.218;2024-03-23T10:52:34;99093.63;;;13.40;100.00
78990;BME280;68390;52.130;21.218;2024-03-23T10:55:04;99085.69;;;13.56;100.00
78990;BME280;68390;52.130;21.218;2024-03-23T10:57:40;99077.09;;;13.71;100.00
78990;BME280;68390;52.130;21.218;2024-03-23T11:00:08;99076.38;;;13.82;100.00
78990;BME280;68390;52.130;21.218;2024-03-23T11:02:34;99079.31;;;13.87;100.00
78990;BME280;68390;52.130;21.218;2024-03-23T11:04:59;99065.31;;;13.89;100.00
78990;BME280;68390;52.130;21.218;2024-03-23T11:07:28;99072.00;;;14.00;100.00
78990;BME280;68390;52.130;21.218;2024-03-23T11:09:54;99058.88;;;13.95;100.00
78990;BME280;68390;52.130;21.218;2024-03-23T11:14:45;99032.63;;;14.11;100.00
78990;BME280;68390;52.130;21.218;2024-03-23T11:17:11;99034.91;;;14.14;100.00
78990;BME280;68390;52.130;21.218;2024-03-23T11:19:37;99038.69;;;14.19;100.00
78990;BME280;68390;52.130;21.218;2024-03-23T11:22:04;99038.63;;;14.26;100.00
78990;BME280;68390;52.130;21.218;2024-03-23T11:24:30;99042.78;;;14.35;100.00
78990;BME280;68390;52.130;21.218;2024-03-23T11:26:56;99021.97;;;14.39;100.00
78990;BME280;68390;52.130;21.218;2024-03-23T11:29:21;99025.94;;;14.43;100.00
78990;BME280;68390;52.130;21.218;2024-03-23T11:31:49;99011.63;;;14.53;100.00
78990;BME280;68390;52.130;21.218;2024-03-23T11:34:15;99002.00;;;14.55;100.00
78990;BME280;68390;52.130;21.218;2024-03-23T11:36:42;99012.28;;;14.66;100.00
78990;BME280;68390;52.130;21.218;2024-03-23T11:44:21;99003.47;;;14.76;100.00
78990;BME280;68390;52.130;21.218;2024-03-23T11:46:47;98985.75;;;14.84;100.00
78990;BME280;68390;52.130;21.218;2024-03-23T11:49:26;98988.53;;;14.95;100.00
78990;BME280;68390;52.130;21.218;2024-03-23T11:51:53;98990.16;;;15.03;100.00
78990;BME280;68390;52.130;21.218;2024-03-23T11:54:22;98973.91;;;14.95;100.00
78990;BME280;68390;52.130;21.218;2024-03-23T11:59:50;98974.81;;;14.89;100.00
78990;BME280;68390;52.130;21.218;2024-03-23T12:02:18;98961.38;;;14.92;100.00
78990;BME280;68390;52.130;21.218;2024-03-23T12:04:43;98963.72;;;15.07;100.00
78990;BME280;68390;52.130;21.218;2024-03-23T12:09:38;98948.16;;;15.24;100.00
78990;BME280;68390;52.130;21.218;2024-03-23T12:12:13;98949.47;;;15.22;100.00
78990;BME280;68390;52.130;21.218;2024-03-23T12:14:43;98937.63;;;15.45;100.00
78990;BME280;68390;52.130;21.218;2024-03-23T12:17:12;98938.16;;;15.65;100.00
78990;BME280;68390;52.130;21.218;2024-03-23T12:19:47;98939.97;;;15.83;100.00
78990;BME280;68390;52.130;21.218;2024-03-23T12:22:22;98936.00;;;15.90;100.00
78990;BME280;68390;52.130;21.218;2024-03-23T12:24:48;98948.53;;;15.93;100.00
78990;BME280;68390;52.130;21.218;2024-03-23T12:27:14;98924.47;;;15.93;100.00
78990;BME280;68390;52.130;21.218;2024-03-23T12:29:40;98923.13;;;15.84;100.00
78990;BME280;68390;52.130;21.218;2024-03-23T12:32:07;98916.75;;;15.72;100.00
78990;BME280;68390;52.130;21.218;2024-03-23T12:34:32;98917.47;;;15.79;100.00
78990;BME280;68390;52.130;21.218;2024-03-23T12:36:58;98932.28;;;15.73;100.00
78990;BME280;68390;52.130;21.218;2024-03-23T12:39:24;98905.44;;;15.62;100.00
78990;BME280;68390;52.130;21.218;2024-03-23T12:41:49;98899.00;;;15.50;100.00
78990;BME280;68390;52.130;21.218;2024-03-23T12:44:15;98893.84;;;15.41;100.00
78990;BME280;68390;52.130;21.218;2024-03-23T12:46:41;98894.66;;;15.30;100.00
78990;BME280;68390;52.130;21.218;2024-03-23T12:49:07;98886.09;;;15.20;100.00
78990;BME280;68390;52.130;21.218;2024-03-23T12:51:33;98873.00;;;15.16;100.00
78990;BME280;68390;52.130;21.218;2024-03-23T12:53:59;98864.44;;;15.17;100.00
78990;BME280;68390;52.130;21.218;2024-03-23T12:56:25;98866.63;;;15.27;100.00
78990;BME280;68390;52.130;21.218;2024-03-23T12:58:50;98860.84;;;15.28;100.00
78990;BME280;68390;52.130;21.218;2024-03-23T13:01:19;98854.84;;;15.31;100.00
78990;BME280;68390;52.130;21.218;2024-03-23T13:03:48;98855.69;;;15.32;100.00
78990;BME280;68390;52.130;21.218;2024-03-23T13:06:14;98851.00;;;15.32;100.00
78990;BME280;68390;52.130;21.218;2024-03-23T13:08:40;98847.03;;;15.28;100.00
78990;BME280;68390;52.130;21.218;2024-03-23T13:11:07;98835.84;;;15.23;100.00
78990;BME280;68390;52.130;21.218;2024-03-23T13:13:36;98832.94;;;15.18;100.00
78990;BME280;68390;52.130;21.218;2024-03-23T13:16:02;98825.72;;;15.17;100.00
78990;BME280;68390;52.130;21.218;2024-03-23T13:18:29;98810.56;;;15.08;100.00
78990;BME280;68390;52.130;21.218;2024-03-23T13:20:54;98821.16;;;15.11;100.00
78990;BME280;68390;52.130;21.218;2024-03-23T13:23:20;98810.69;;;15.01;100.00
78990;BME280;68390;52.130;21.218;2024-03-23T13:25:52;98816.84;;;15.03;100.00
78990;BME280;68390;52.130;21.218;2024-03-23T13:28:23;98809.00;;;15.00;100.00
78990;BME280;68390;52.130;21.218;2024-03-23T13:30:53;98789.41;;;15.02;100.00
78990;BME280;68390;52.130;21.218;2024-03-23T13:33:18;98775.94;;;15.05;100.00
78990;BME280;68390;52.130;21.218;2024-03-23T13:35:54;98782.47;;;15.11;100.00
78990;BME280;68390;52.130;21.218;2024-03-23T13:38:23;98769.00;;;15.15;100.00
78990;BME280;68390;52.130;21.218;2024-03-23T13:40:59;98773.31;;;15.22;100.00
78990;BME280;68390;52.130;21.218;2024-03-23T13:43:26;98762.75;;;15.19;100.00
78990;BME280;68390;52.130;21.218;2024-03-23T13:45:54;98768.16;;;15.26;100.00
78990;BME280;68390;52.130;21.218;2024-03-23T13:48:21;98746.16;;;15.19;100.00